Rm Calima I — HKNU3 — position and weather

sailwx.info

Track history (hours):
 
Tides and Currents Weather Stations Pressure Air Temp Water Temp Dewpoint Dewpoint Depression Visibility Wind Speed Wind Dir Waves Ship Positions

Rm Calima I

Last reported at 2017-Nov-17 21:41 UTC. Time now 2017-Nov-20 06:20 UTC.
Position N 11°01' W 074°48'.

Length 30 m; draft 4.2 m.

Type: Tug. MMSI: 730151081.

Date/timePositionNaut miles runAvg speedWind from/ knotsBaromVisibWave heightAir tempDewpointWater temp
2017-Nov-17 21:41N 11°01' W 074°48'1 7.3
2017-Nov-17 21:30N 11°02' W 074°49'0 0.8
2017-Nov-17 20:58N 11°02' W 074°49'0 0.4
2017-Nov-17 20:30N 11°02' W 074°49'0 0.0
2017-Nov-17 19:59N 11°02' W 074°49'6 0.1
2017-Nov-15 19:43N 10°58' W 074°45'0 0.0
2017-Nov-14 20:38N 10°58' W 074°46'0 0.0
2017-Nov-14 20:29N 10°58' W 074°46'0 0.0
2017-Nov-14 20:00N 10°58' W 074°46'0 0.0
2017-Nov-14 19:30N 10°58' W 074°46'0 0.0
2017-Nov-14 19:00N 10°58' W 074°46'0 0.0
2017-Nov-14 18:30N 10°58' W 074°46'0 0.0
2017-Nov-14 18:00N 10°58' W 074°46'0 0.0
2017-Nov-14 17:30N 10°58' W 074°46'0 0.0
2017-Nov-14 17:00N 10°58' W 074°46'0 0.0
2017-Nov-14 16:30N 10°58' W 074°46'0 0.0
2017-Nov-14 16:00N 10°58' W 074°46'0 0.0
2017-Nov-14 15:31N 10°58' W 074°46'0 0.0
2017-Nov-14 15:00N 10°58' W 074°46'0 0.2
2017-Nov-14 14:30N 10°58' W 074°46'0 0.0
2017-Nov-14 14:00N 10°58' W 074°46'0 0.0
2017-Nov-14 13:30N 10°58' W 074°46'0 0.0
2017-Nov-14 13:00N 10°58' W 074°46'0 0.0
2017-Nov-14 12:30N 10°58' W 074°46'0 0.0
2017-Nov-14 12:00N 10°58' W 074°46'0 0.0
2017-Nov-14 11:30N 10°58' W 074°46'0 0.0
2017-Nov-14 11:00N 10°58' W 074°46'0 0.0
2017-Nov-14 10:30N 10°58' W 074°46'0 0.0
2017-Nov-14 10:00N 10°58' W 074°46'0 0.0
2017-Nov-14 09:30N 10°58' W 074°46'0 0.1
2017-Nov-14 08:08N 10°58' W 074°46'0 0.0
2017-Nov-14 08:00N 10°58' W 074°46'0 0.0
2017-Nov-14 07:30N 10°58' W 074°46'0 0.0
2017-Nov-14 07:00N 10°58' W 074°46'0 0.0
2017-Nov-14 06:30N 10°58' W 074°46'0 0.0
2017-Nov-14 06:00N 10°58' W 074°46'0 0.0
2017-Nov-14 05:30N 10°58' W 074°46'0 0.0
2017-Nov-14 05:00N 10°58' W 074°46'0 0.0
2017-Nov-14 04:30N 10°58' W 074°46'0 0.0
2017-Nov-14 04:00N 10°58' W 074°46'0 0.0
2017-Nov-14 03:31N 10°58' W 074°46'0 0.4
2017-Nov-14 02:59N 10°58' W 074°45'0 0.2
2017-Nov-14 02:31N 10°58' W 074°46'0 0.0
2017-Nov-14 02:00N 10°58' W 074°46'0 0.0
2017-Nov-14 01:30N 10°58' W 074°46'0 0.0
2017-Nov-14 01:00N 10°58' W 074°46'0 0.0
2017-Nov-14 00:30N 10°58' W 074°46'0 0.0
2017-Nov-14 00:00N 10°58' W 074°46'0 0.0
2017-Nov-13 23:30N 10°58' W 074°46'0 0.0
2017-Nov-13 23:00N 10°58' W 074°46'0 0.0
2017-Nov-13 22:30N 10°58' W 074°46'0 0.0
2017-Nov-13 22:00N 10°58' W 074°46'0 0.0
2017-Nov-13 02:00N 10°58' W 074°46'0 0.0
2017-Nov-13 01:30N 10°58' W 074°46'0 0.0
2017-Nov-13 01:00N 10°58' W 074°46'0 0.0
2017-Nov-13 00:30N 10°58' W 074°46'0 0.0
2017-Nov-13 00:00N 10°58' W 074°46'0 0.0
2017-Nov-12 23:30N 10°58' W 074°46'0 0.0
2017-Nov-12 22:59N 10°58' W 074°46'0 0.0
2017-Nov-12 22:30N 10°58' W 074°46'0 0.0
2017-Nov-12 22:00N 10°58' W 074°46'0 0.0
2017-Nov-12 21:30N 10°58' W 074°46'0 0.0
2017-Nov-12 21:00N 10°58' W 074°46'0 0.0
2017-Nov-12 20:29N 10°58' W 074°46'0 0.0
2017-Nov-12 19:59N 10°58' W 074°46'0 0.0
2017-Nov-12 19:30N 10°58' W 074°46'0 0.0
2017-Nov-12 19:00N 10°58' W 074°46'0 0.4
2017-Nov-12 18:29N 10°58' W 074°46'0 0.0
2017-Nov-12 17:54N 10°58' W 074°46'4 1.2
2017-Nov-12 14:50N 11°01' W 074°47'2 5.4
2017-Nov-12 14:28N 11°02' W 074°49'0 0.6
2017-Nov-12 13:59N 11°03' W 074°49'2 0.1
2017-Nov-11 17:46N 11°02' W 074°48'1 5.5
2017-Nov-11 17:30N 11°02' W 074°49'0 0.0
2017-Nov-11 16:58N 11°02' W 074°49'6 0.3
2017-Nov-10 20:52N 10°58' W 074°46'0 0.0
2017-Nov-10 20:30N 10°58' W 074°46'0 0.0
2017-Nov-10 20:00N 10°58' W 074°46'0 0.0
2017-Nov-10 19:30N 10°58' W 074°46'0 0.0
2017-Nov-10 19:00N 10°58' W 074°46'0 0.0
2017-Nov-10 18:30N 10°58' W 074°46'0 0.8
2017-Nov-10 18:00N 10°58' W 074°46'0 0.0
2017-Nov-10 17:30N 10°58' W 074°46'0 0.0
2017-Nov-10 17:00N 10°58' W 074°46'0 0.0
2017-Nov-10 16:30N 10°58' W 074°46'0 0.0
2017-Nov-10 16:00N 10°58' W 074°46'0 0.0
2017-Nov-10 15:29N 10°58' W 074°46'0 0.0
2017-Nov-10 15:00N 10°58' W 074°46'0 0.0
2017-Nov-10 14:30N 10°58' W 074°46'0 0.0
2017-Nov-10 14:00N 10°58' W 074°46'0 0.5
2017-Nov-10 13:30N 10°58' W 074°45'4 7.1
2017-Nov-10 13:00N 11°01' W 074°47'1 0.5
2017-Nov-10 11:52N 11°02' W 074°48'410.8
2017-Nov-10 11:30N 10°59' W 074°45'0 0.9
2017-Nov-10 11:00N 10°58' W 074°46'0 0.0
2017-Nov-10 08:01N 10°58' W 074°46'0 0.3
2017-Nov-10 08:00N 10°58' W 074°46'5 0.6
2017-Nov-09 23:04N 11°02' W 074°49'0 0.1
2017-Nov-09 22:59N 11°02' W 074°49'0 0.0
2017-Nov-08 16:25N 11°02' W 074°49'1 0.2
2017-Nov-08 13:12N 11°02' W 074°48'0 0.4
2017-Nov-08 12:44N 11°02' W 074°48'1 3.6
2017-Nov-08 12:30N 11°02' W 074°49'5 0.5
2017-Nov-08 03:30N 10°59' W 074°45'4 0.7
2017-Nov-07 22:42N 11°02' W 074°48'1 1.7
2017-Nov-07 21:51N 11°02' W 074°49'  
Track history (hours):
 
Tides and Currents Weather Stations Pressure Air Temp Water Temp Dewpoint Dewpoint Depression Visibility Wind Speed Wind Dir Waves Ship Positions

Rm Calima I

Last reported at 2017-Nov-17 21:41 UTC. Time now 2017-Nov-20 06:20 UTC.
Position N 11°01' W 074°48'.

Length 30 m; draft 4.2 m.

Type: Tug. MMSI: 730151081.

Date/timePositionNaut miles runAvg speedWind from/ knotsBaromVisibWave heightAir tempDewpointWater temp
2017-Nov-17 21:41N 11°01' W 074°48'1 7.3
2017-Nov-17 21:30N 11°02' W 074°49'0 0.8
2017-Nov-17 20:58N 11°02' W 074°49'0 0.4
2017-Nov-17 20:30N 11°02' W 074°49'0 0.0
2017-Nov-17 19:59N 11°02' W 074°49'6 0.1
2017-Nov-15 19:43N 10°58' W 074°45'0 0.0
2017-Nov-14 20:38N 10°58' W 074°46'0 0.0
2017-Nov-14 20:29N 10°58' W 074°46'0 0.0
2017-Nov-14 20:00N 10°58' W 074°46'0 0.0
2017-Nov-14 19:30N 10°58' W 074°46'0 0.0
2017-Nov-14 19:00N 10°58' W 074°46'0 0.0
2017-Nov-14 18:30N 10°58' W 074°46'0 0.0
2017-Nov-14 18:00N 10°58' W 074°46'0 0.0
2017-Nov-14 17:30N 10°58' W 074°46'0 0.0
2017-Nov-14 17:00N 10°58' W 074°46'0 0.0
2017-Nov-14 16:30N 10°58' W 074°46'0 0.0
2017-Nov-14 16:00N 10°58' W 074°46'0 0.0
2017-Nov-14 15:31N 10°58' W 074°46'0 0.0
2017-Nov-14 15:00N 10°58' W 074°46'0 0.2
2017-Nov-14 14:30N 10°58' W 074°46'0 0.0
2017-Nov-14 14:00N 10°58' W 074°46'0 0.0
2017-Nov-14 13:30N 10°58' W 074°46'0 0.0
2017-Nov-14 13:00N 10°58' W 074°46'0 0.0
2017-Nov-14 12:30N 10°58' W 074°46'0 0.0
2017-Nov-14 12:00N 10°58' W 074°46'0 0.0
2017-Nov-14 11:30N 10°58' W 074°46'0 0.0
2017-Nov-14 11:00N 10°58' W 074°46'0 0.0
2017-Nov-14 10:30N 10°58' W 074°46'0 0.0
2017-Nov-14 10:00N 10°58' W 074°46'0 0.0
2017-Nov-14 09:30N 10°58' W 074°46'0 0.1
2017-Nov-14 08:08N 10°58' W 074°46'0 0.0
2017-Nov-14 08:00N 10°58' W 074°46'0 0.0
2017-Nov-14 07:30N 10°58' W 074°46'0 0.0
2017-Nov-14 07:00N 10°58' W 074°46'0 0.0
2017-Nov-14 06:30N 10°58' W 074°46'0 0.0
2017-Nov-14 06:00N 10°58' W 074°46'0 0.0
2017-Nov-14 05:30N 10°58' W 074°46'0 0.0
2017-Nov-14 05:00N 10°58' W 074°46'0 0.0
2017-Nov-14 04:30N 10°58' W 074°46'0 0.0
2017-Nov-14 04:00N 10°58' W 074°46'0 0.0
2017-Nov-14 03:31N 10°58' W 074°46'0 0.4
2017-Nov-14 02:59N 10°58' W 074°45'0 0.2
2017-Nov-14 02:31N 10°58' W 074°46'0 0.0
2017-Nov-14 02:00N 10°58' W 074°46'0 0.0
2017-Nov-14 01:30N 10°58' W 074°46'0 0.0
2017-Nov-14 01:00N 10°58' W 074°46'0 0.0
2017-Nov-14 00:30N 10°58' W 074°46'0 0.0
2017-Nov-14 00:00N 10°58' W 074°46'0 0.0
2017-Nov-13 23:30N 10°58' W 074°46'0 0.0
2017-Nov-13 23:00N 10°58' W 074°46'0 0.0
2017-Nov-13 22:30N 10°58' W 074°46'0 0.0
2017-Nov-13 22:00N 10°58' W 074°46'0 0.0
2017-Nov-13 02:00N 10°58' W 074°46'0 0.0
2017-Nov-13 01:30N 10°58' W 074°46'0 0.0
2017-Nov-13 01:00N 10°58' W 074°46'0 0.0
2017-Nov-13 00:30N 10°58' W 074°46'0 0.0
2017-Nov-13 00:00N 10°58' W 074°46'0 0.0
2017-Nov-12 23:30N 10°58' W 074°46'0 0.0
2017-Nov-12 22:59N 10°58' W 074°46'0 0.0
2017-Nov-12 22:30N 10°58' W 074°46'0 0.0
2017-Nov-12 22:00N 10°58' W 074°46'0 0.0
2017-Nov-12 21:30N 10°58' W 074°46'0 0.0
2017-Nov-12 21:00N 10°58' W 074°46'0 0.0
2017-Nov-12 20:29N 10°58' W 074°46'0 0.0
2017-Nov-12 19:59N 10°58' W 074°46'0 0.0
2017-Nov-12 19:30N 10°58' W 074°46'0 0.0
2017-Nov-12 19:00N 10°58' W 074°46'0 0.4
2017-Nov-12 18:29N 10°58' W 074°46'0 0.0
2017-Nov-12 17:54N 10°58' W 074°46'4 1.2
2017-Nov-12 14:50N 11°01' W 074°47'2 5.4
2017-Nov-12 14:28N 11°02' W 074°49'0 0.6
2017-Nov-12 13:59N 11°03' W 074°49'2 0.1
2017-Nov-11 17:46N 11°02' W 074°48'1 5.5
2017-Nov-11 17:30N 11°02' W 074°49'0 0.0
2017-Nov-11 16:58N 11°02' W 074°49'6 0.3
2017-Nov-10 20:52N 10°58' W 074°46'0 0.0
2017-Nov-10 20:30N 10°58' W 074°46'0 0.0
2017-Nov-10 20:00N 10°58' W 074°46'0 0.0
2017-Nov-10 19:30N 10°58' W 074°46'0 0.0
2017-Nov-10 19:00N 10°58' W 074°46'0 0.0
2017-Nov-10 18:30N 10°58' W 074°46'0 0.8
2017-Nov-10 18:00N 10°58' W 074°46'0 0.0
2017-Nov-10 17:30N 10°58' W 074°46'0 0.0
2017-Nov-10 17:00N 10°58' W 074°46'0 0.0
2017-Nov-10 16:30N 10°58' W 074°46'0 0.0
2017-Nov-10 16:00N 10°58' W 074°46'0 0.0
2017-Nov-10 15:29N 10°58' W 074°46'0 0.0
2017-Nov-10 15:00N 10°58' W 074°46'0 0.0
2017-Nov-10 14:30N 10°58' W 074°46'0 0.0
2017-Nov-10 14:00N 10°58' W 074°46'0 0.5
2017-Nov-10 13:30N 10°58' W 074°45'4 7.1
2017-Nov-10 13:00N 11°01' W 074°47'1 0.5
2017-Nov-10 11:52N 11°02' W 074°48'410.8
2017-Nov-10 11:30N 10°59' W 074°45'0 0.9
2017-Nov-10 11:00N 10°58' W 074°46'0 0.0
2017-Nov-10 08:01N 10°58' W 074°46'0 0.3
2017-Nov-10 08:00N 10°58' W 074°46'5 0.6
2017-Nov-09 23:04N 11°02' W 074°49'0 0.1
2017-Nov-09 22:59N 11°02' W 074°49'0 0.0
2017-Nov-08 16:25N 11°02' W 074°49'1 0.2
2017-Nov-08 13:12N 11°02' W 074°48'0 0.4
2017-Nov-08 12:44N 11°02' W 074°48'1 3.6
2017-Nov-08 12:30N 11°02' W 074°49'5 0.5
2017-Nov-08 03:30N 10°59' W 074°45'4 0.7
2017-Nov-07 22:42N 11°02' W 074°48'1 1.7
2017-Nov-07 21:51N 11°02' W 074°49'  

Dump ship's entire track history